createdAt,value
2022-08-17T00:00:49.646Z,31.8
2022-08-17T00:01:52.116Z,24.9
2022-08-17T00:03:52.217Z,38.3
2022-08-17T00:05:56.147Z,29.6
2022-08-17T00:08:00.115Z,24.2
2022-08-17T00:12:40.523Z,28.4
2022-08-17T00:16:18.603Z,24.4
2022-08-17T00:19:06.324Z,28.5
2022-08-17T00:20:30.597Z,30.7
2022-08-17T00:22:33.881Z,31.9
2022-08-17T00:24:37.166Z,25.1
2022-08-17T00:26:44.544Z,29.5
2022-08-17T00:28:45.005Z,31.4
2022-08-17T00:30:53.208Z,27.9
2022-08-17T00:34:56.814Z,33
2022-08-17T00:39:07.465Z,27.4
2022-08-17T00:41:11.388Z,26
2022-08-17T00:43:15.313Z,23.6
2022-08-17T00:45:19.239Z,28.7
2022-08-17T00:47:23.150Z,28.6
2022-08-17T00:49:27.105Z,23.5
2022-08-17T00:51:31.009Z,25.2
2022-08-17T00:53:37.782Z,26.6
2022-08-17T00:55:41.711Z,27.9
2022-08-17T00:57:45.625Z,24.7
2022-08-17T01:00:04.039Z,26.7
2022-08-17T01:02:07.685Z,33.3
2022-08-17T01:04:11.598Z,30.6
2022-08-17T01:06:18.357Z,44.6
2022-08-17T01:08:22.298Z,27.5
2022-08-17T01:10:57.393Z,28.2
2022-08-17T01:12:30.165Z,23.4
2022-08-17T01:14:34.090Z,25.4
2022-08-17T01:20:48.902Z,32.3
2022-08-17T01:24:56.598Z,34.5
2022-08-17T01:31:08.440Z,28.1
2022-08-17T01:35:19.115Z,37.7
2022-08-17T01:39:28.527Z,31.3
2022-08-17T01:41:32.403Z,27.8
2022-08-17T01:43:36.323Z,34.6
2022-08-17T01:45:40.252Z,29.9
2022-08-17T01:47:44.184Z,33
2022-08-17T01:49:50.950Z,35.3
2022-08-17T01:51:54.879Z,35.3
2022-08-17T01:53:58.843Z,39.5
2022-08-17T01:55:02.209Z,43.8
2022-08-17T01:57:06.149Z,33.5
2022-08-17T01:59:10.096Z,32.9
2022-08-17T02:03:20.802Z,33.6
2022-08-17T02:07:28.680Z,31.6
2022-08-17T02:09:32.602Z,37.2
2022-08-17T02:11:36.516Z,35.6
2022-08-17T02:13:40.508Z,38
2022-08-17T02:17:54.772Z,38.7
2022-08-17T02:19:55.120Z,37.6
2022-08-17T02:21:59.059Z,35.5
2022-08-17T02:24:02.989Z,39.4
2022-08-17T02:26:06.916Z,45.5
2022-08-17T02:36:29.460Z,49.5
2022-08-17T02:38:33.391Z,34.9
2022-08-17T02:40:37.332Z,35
2022-08-17T02:42:41.251Z,42.6
2022-08-17T02:44:45.210Z,33.6
2022-08-17T02:48:55.898Z,34.5
2022-08-17T02:52:03.231Z,36.7
2022-08-17T02:54:41.608Z,33.8
2022-08-17T02:56:11.105Z,32
2022-08-17T02:58:15.030Z,36.3
2022-08-17T03:00:21.791Z,45.6
2022-08-17T03:02:25.736Z,39.8
2022-08-17T03:04:29.683Z,30.5
2022-08-17T03:06:33.599Z,38.5
2022-08-17T03:08:37.590Z,34.9
2022-08-17T03:10:41.478Z,37.3
2022-08-17T03:14:52.169Z,39.5
2022-08-17T03:19:00.081Z,42.9
2022-08-17T03:21:03.986Z,39.7
2022-08-17T03:31:26.540Z,39.3
2022-08-17T03:37:38.364Z,34.7
2022-08-17T03:39:42.337Z,41.8
2022-08-17T03:41:46.246Z,39
2022-08-17T03:43:52.977Z,37.1
2022-08-17T03:45:56.916Z,40.9
2022-08-17T03:48:00.840Z,37.7
2022-08-17T03:49:04.233Z,37.1
2022-08-17T03:57:22.823Z,37.2
2022-08-17T03:59:26.755Z,35.1
2022-08-17T04:03:34.629Z,39.2
2022-08-17T04:07:42.484Z,36.4
2022-08-17T04:09:46.418Z,35.8
2022-08-17T04:11:53.176Z,35.3
2022-08-17T04:13:57.132Z,52
2022-08-17T04:18:07.283Z,32.9
2022-08-17T04:20:08.942Z,47.5
2022-08-17T04:22:32.789Z,37.8
2022-08-17T04:24:16.815Z,31.8
2022-08-17T04:26:53.655Z,43.9
2022-08-17T04:28:27.540Z,45.6
2022-08-17T04:30:31.469Z,37.3
2022-08-17T04:33:00.469Z,35.4
2022-08-17T04:34:39.318Z,41
2022-08-17T04:36:47.951Z,35.2
2022-08-17T04:38:47.200Z,35.7
2022-08-17T04:40:53.987Z,40.3
2022-08-17T04:43:00.895Z,35.9
2022-08-17T04:45:01.839Z,40.7
2022-08-17T04:47:25.705Z,36
2022-08-17T04:51:33.569Z,38.9
2022-08-17T04:55:44.293Z,32.2
2022-08-17T04:57:48.233Z,37.5
2022-08-17T04:59:52.153Z,38.8
2022-08-17T05:04:00.085Z,37.1
2022-08-17T05:06:03.971Z,34
2022-08-17T05:10:14.680Z,33.7
2022-08-17T05:12:18.603Z,35.9
2022-08-17T05:14:22.546Z,34.5
2022-08-17T05:16:26.480Z,33.7
2022-08-17T05:20:34.342Z,42.1
2022-08-17T05:22:41.101Z,37.4
2022-08-17T05:24:53.996Z,30.7
2022-08-17T05:26:48.995Z,38.8
2022-08-17T05:28:52.902Z,36
2022-08-17T05:30:56.849Z,35.3
2022-08-17T05:33:00.778Z,36.9
2022-08-17T05:35:04.713Z,39.4
2022-08-17T05:39:17.098Z,48.3
2022-08-17T05:42:22.722Z,35
2022-08-17T05:44:26.678Z,44.4
2022-08-17T05:52:45.253Z,43.4
2022-08-17T05:54:49.173Z,37.9
2022-08-17T05:56:53.114Z,50.6
2022-08-17T05:58:57.071Z,48.8
2022-08-17T06:01:01.050Z,22.1
2022-08-17T06:07:15.663Z,54.5
2022-08-17T06:09:25.763Z,54.6
2022-08-17T06:11:23.597Z,53.7
2022-08-17T06:13:27.529Z,61.2
2022-08-17T06:17:35.393Z,52.4
2022-08-17T06:19:42.159Z,58.1
2022-08-17T06:25:53.992Z,60.7
2022-08-17T06:27:57.912Z,59.7
2022-08-17T06:30:01.850Z,60
2022-08-17T06:34:12.595Z,63.3
2022-08-17T06:39:23.839Z,67.3
2022-08-17T06:41:27.792Z,66.5
2022-08-17T06:47:42.409Z,58.7
2022-08-17T06:49:46.342Z,55.8
2022-08-17T06:51:50.305Z,51.8
2022-08-17T06:53:54.217Z,52.8
2022-08-17T06:58:02.080Z,44.9
2022-08-17T07:00:06.030Z,53.1
2022-08-17T07:02:12.809Z,50.6
2022-08-17T07:12:32.470Z,54.5
2022-08-17T07:14:36.411Z,43
2022-08-17T07:16:43.169Z,47.7
2022-08-17T07:22:59.775Z,33.1
2022-08-17T07:27:02.786Z,35.4
2022-08-17T07:29:06.728Z,35.2
2022-08-17T07:31:13.502Z,32.6
2022-08-17T07:33:17.418Z,40.2
2022-08-17T07:35:21.343Z,31.1
2022-08-17T07:36:29.811Z,33.8
2022-08-17T07:40:34.082Z,29.1
2022-08-17T07:42:40.725Z,34.2
2022-08-17T07:44:44.712Z,28.2
2022-08-17T07:48:52.501Z,26.2
2022-08-17T07:55:04.188Z,27.4
2022-08-17T07:59:14.822Z,30.8
2022-08-17T08:03:22.587Z,28.2
2022-08-17T08:05:49.357Z,20.9
2022-08-17T08:07:30.425Z,23.4
2022-08-17T08:09:34.271Z,22.2
2022-08-17T08:13:44.860Z,22.8
2022-08-17T08:19:56.508Z,21.4
2022-08-17T08:22:00.427Z,22.5
2022-08-17T08:24:04.286Z,22.6
2022-08-17T08:26:08.177Z,26
2022-08-17T08:28:14.919Z,23.9
2022-08-17T08:30:18.792Z,22.6
2022-08-17T08:32:22.652Z,19.4
2022-08-17T08:35:01.758Z,25.2
2022-08-17T08:37:02.049Z,24.8
2022-08-17T08:38:54.356Z,22.2
2022-08-17T08:41:01.119Z,22.5
2022-08-17T08:43:05.004Z,30.1
2022-08-17T08:45:08.882Z,29.4
2022-08-17T08:47:12.746Z,22.3
2022-08-17T08:49:16.636Z,24.6
2022-08-17T08:51:20.528Z,23.9
2022-08-17T08:53:24.404Z,32.6
2022-08-17T08:55:31.153Z,30.9
2022-08-17T08:57:35.030Z,22.7
2022-08-17T08:59:42.026Z,19.1
2022-08-17T09:01:42.835Z,25.1
2022-08-17T09:03:52.842Z,32.5
2022-08-17T09:05:50.549Z,32.9
2022-08-17T09:07:56.273Z,26.9
2022-08-17T09:10:01.138Z,30.2
2022-08-17T09:12:05.009Z,28.9
2022-08-17T09:14:21.253Z,22.8
2022-08-17T09:16:12.745Z,36.6
2022-08-17T09:19:00.480Z,18.6
2022-08-17T09:20:28.286Z,23.7
2022-08-17T09:22:24.330Z,19.9
2022-08-17T09:24:31.034Z,23.4
2022-08-17T09:26:34.928Z,24.9
2022-08-17T09:28:38.763Z,22.6
2022-08-17T09:29:42.103Z,35.3
2022-08-17T09:31:49.055Z,23
2022-08-17T09:33:49.821Z,25
2022-08-17T09:35:53.696Z,25.5
2022-08-17T09:38:00.382Z,23.7
2022-08-17T09:40:04.328Z,24.6
2022-08-17T09:42:08.085Z,25.7
2022-08-17T09:44:22.574Z,23.7
2022-08-17T09:46:15.780Z,24.1
2022-08-17T09:48:19.606Z,23.7
2022-08-17T09:51:05.072Z,26.2
2022-08-17T09:52:30.145Z,17.5
2022-08-17T09:56:41.051Z,17.6
2022-08-17T09:58:41.590Z,23.3
2022-08-17T10:00:45.517Z,19.4
2022-08-17T10:02:49.250Z,18.5
2022-08-17T10:04:53.057Z,22.2
2022-08-17T10:06:59.742Z,17.9
2022-08-17T10:09:03.530Z,18.8
2022-08-17T10:11:16.847Z,20.5
2022-08-17T10:17:18.767Z,21.3
2022-08-17T10:19:22.597Z,20.7
2022-08-17T10:21:29.271Z,22.5
2022-08-17T10:23:33.077Z,27.9
2022-08-17T10:26:43.076Z,22.7
2022-08-17T10:28:44.079Z,23.9
2022-08-17T10:30:47.910Z,25.5
2022-08-17T10:32:51.740Z,27.5
2022-08-17T10:34:58.425Z,24.7
2022-08-17T10:37:02.240Z,21.9
2022-08-17T10:39:06.081Z,27.5
2022-08-17T10:41:09.911Z,28.7
2022-08-17T10:43:13.749Z,26.2
2022-08-17T10:45:17.602Z,23.9
2022-08-17T10:47:21.438Z,28.4
2022-08-17T10:49:28.147Z,27.6
2022-08-17T10:51:31.951Z,32.4
2022-08-17T10:53:35.811Z,26.4
2022-08-17T10:55:39.616Z,31.1
2022-08-17T10:57:43.556Z,30.2
2022-08-17T10:59:47.305Z,28.1
2022-08-17T11:01:51.126Z,33.9
2022-08-17T11:03:57.835Z,27.7
2022-08-17T11:10:09.355Z,33.7
2022-08-17T11:12:13.263Z,27.7
2022-08-17T11:14:17.032Z,30.6
2022-08-17T11:16:20.909Z,30.2
2022-08-17T11:18:27.583Z,31.3
2022-08-17T11:20:31.415Z,30.8
2022-08-17T11:22:35.257Z,29.8
2022-08-17T11:23:38.608Z,29.6
2022-08-17T11:25:42.456Z,32.4
2022-08-17T11:27:46.291Z,35.2
2022-08-17T11:29:53.502Z,30.1
2022-08-17T11:31:56.831Z,32.8
2022-08-17T11:34:00.695Z,29.8
2022-08-17T11:36:04.714Z,27.1
2022-08-17T11:38:15.932Z,39.1
2022-08-17T11:40:12.400Z,31.7
2022-08-17T11:42:16.031Z,27.9
2022-08-17T11:44:19.869Z,33.4
2022-08-17T11:48:30.677Z,29.1
2022-08-17T11:50:34.274Z,34.3
2022-08-17T11:56:45.836Z,35.7
2022-08-17T11:58:49.656Z,32.7
2022-08-17T12:03:00.195Z,30
2022-08-17T12:05:04.078Z,33.9
2022-08-17T12:09:11.780Z,43.6
2022-08-17T12:13:19.501Z,34.8
2022-08-17T12:17:40.793Z,35.1
2022-08-17T12:19:33.948Z,39.2
2022-08-17T12:22:03.542Z,39.7
2022-08-17T12:30:21.909Z,38.1
2022-08-17T12:32:25.788Z,36.2
2022-08-17T12:34:29.673Z,40.4
2022-08-17T12:44:51.916Z,42.3
2022-08-17T12:49:00.242Z,40.9
2022-08-17T12:59:30.252Z,52.2
2022-08-17T13:03:32.985Z,42.3
2022-08-17T13:05:33.607Z,42.1
2022-08-17T13:09:41.382Z,36.4
2022-08-17T13:13:52.001Z,36.7
2022-08-17T13:15:55.895Z,41.7
2022-08-17T13:16:59.258Z,43.1
2022-08-17T13:19:03.198Z,35.5
2022-08-17T13:21:07.053Z,39.6
2022-08-17T13:23:12.447Z,38.5
2022-08-17T13:25:17.666Z,39.7
2022-08-17T13:27:21.582Z,38.1
2022-08-17T13:29:25.491Z,45.3
2022-08-17T13:31:29.384Z,43.3
2022-08-17T13:33:44.927Z,44.5
2022-08-17T13:35:39.417Z,64.4
2022-08-17T13:37:42.744Z,53.9
2022-08-17T13:39:49.377Z,47.7
2022-08-17T13:41:53.236Z,50.5
2022-08-17T13:43:57.147Z,56.6
2022-08-17T13:46:01.057Z,52.2
2022-08-17T13:48:04.962Z,47.8
2022-08-17T13:50:08.871Z,57.3
2022-08-17T13:52:12.788Z,52.7
2022-08-17T13:54:19.546Z,43.8
2022-08-17T13:56:34.958Z,49.8
2022-08-17T13:58:27.367Z,52.9
2022-08-17T14:00:31.272Z,69.9
2022-08-17T14:02:35.189Z,52.1
2022-08-17T14:04:39.114Z,58.7
2022-08-17T14:06:51.896Z,56.7
2022-08-17T14:08:49.774Z,63.5
2022-08-17T14:10:53.704Z,62.2
2022-08-17T14:12:57.611Z,57.9
2022-08-17T14:14:00.977Z,53.6
2022-08-17T14:16:04.918Z,66.9
2022-08-17T14:18:08.825Z,61.1
2022-08-17T14:20:12.727Z,71.8
2022-08-17T14:22:19.518Z,69.6
2022-08-17T14:24:23.404Z,55.8
2022-08-17T14:26:27.329Z,69
2022-08-17T14:32:39.106Z,65.3
2022-08-17T14:36:49.741Z,71.4
2022-08-17T14:38:53.633Z,66.9
2022-08-17T14:40:57.556Z,56.8
2022-08-17T14:43:01.485Z,72.2
2022-08-17T14:47:09.329Z,77
2022-08-17T14:49:13.255Z,73
2022-08-17T14:53:23.918Z,66
2022-08-17T14:55:27.832Z,58.6
2022-08-17T14:57:34.155Z,53.7
2022-08-17T14:59:35.665Z,64
2022-08-17T15:01:39.692Z,49.5
2022-08-17T15:03:43.510Z,49.9
2022-08-17T15:05:50.291Z,60.6
2022-08-17T15:07:54.170Z,50.2
2022-08-17T15:09:58.199Z,50.5
2022-08-17T15:11:01.472Z,47.6
2022-08-17T15:13:05.481Z,47.5
2022-08-17T15:15:09.280Z,64
2022-08-17T15:17:13.189Z,44.7
2022-08-17T15:19:19.976Z,47.4
2022-08-17T15:21:23.860Z,52.9
2022-08-17T15:25:31.766Z,48.5
2022-08-17T15:31:43.424Z,41.6
2022-08-17T15:33:50.156Z,41.5
2022-08-17T15:37:57.949Z,29.9
2022-08-17T15:40:01.956Z,26.2
2022-08-17T15:44:09.659Z,26.4
2022-08-17T15:46:13.545Z,28.9
2022-08-17T15:48:20.343Z,31.5
2022-08-17T15:54:34.570Z,38.5
2022-08-17T15:58:39.777Z,39.3
2022-08-17T16:03:45.965Z,45.5
2022-08-17T16:04:54.365Z,50
2022-08-17T16:06:58.231Z,48.8
2022-08-17T16:09:22.181Z,47.9
2022-08-17T16:11:26.070Z,44.7
2022-08-17T16:13:29.984Z,51.7
2022-08-17T16:15:36.720Z,61.4
2022-08-17T16:17:40.770Z,57.4
2022-08-17T16:19:44.510Z,55.2
2022-08-17T16:21:48.413Z,49.1
2022-08-17T16:23:52.349Z,66.2
2022-08-17T16:25:56.220Z,47.8
2022-08-17T16:28:00.145Z,43.1
2022-08-17T16:30:06.859Z,61.2
2022-08-17T16:32:10.803Z,53.4
2022-08-17T16:34:17.644Z,53.5
2022-08-17T16:36:18.563Z,48.4
2022-08-17T16:38:22.476Z,56.1
2022-08-17T16:40:26.388Z,59.5
2022-08-17T16:42:30.287Z,47.8
2022-08-17T16:44:37.038Z,54.9
2022-08-17T16:46:40.959Z,56.3
2022-08-17T16:50:59.985Z,59.9
2022-08-17T16:52:53.035Z,58.2
2022-08-17T16:57:00.501Z,66.3
2022-08-17T16:59:30.065Z,58.9
2022-08-17T17:01:11.239Z,56.6
2022-08-17T17:04:18.429Z,57.6
2022-08-17T17:06:22.361Z,62
2022-08-17T17:08:26.281Z,68.3
2022-08-17T17:10:30.277Z,59.2
2022-08-17T17:13:01.655Z,69.5
2022-08-17T17:14:40.863Z,64.3
2022-08-17T17:16:44.880Z,67
2022-08-17T17:18:48.662Z,67.4
2022-08-17T17:20:52.578Z,53.3
2022-08-17T17:22:56.488Z,57.8
2022-08-17T17:25:00.388Z,64.6
2022-08-17T17:27:07.460Z,58.6
2022-08-17T17:29:11.047Z,39.6
2022-08-17T17:31:14.970Z,48.6
2022-08-17T17:33:18.880Z,37.9
2022-08-17T17:35:22.786Z,44
2022-08-17T17:37:26.694Z,43.5
2022-08-17T17:39:30.661Z,41.2
2022-08-17T17:41:37.371Z,42.1
2022-08-17T17:43:41.378Z,38.1
2022-08-17T17:47:49.117Z,29.3
2022-08-17T17:49:53.004Z,36.3
2022-08-17T17:52:07.960Z,29.5
2022-08-17T17:54:00.822Z,37.4
2022-08-17T17:56:07.610Z,37
2022-08-17T18:00:15.414Z,38.2
2022-08-17T18:01:18.797Z,39.2
2022-08-17T18:03:22.721Z,38.9
2022-08-17T18:05:26.629Z,36.4
2022-08-17T18:07:30.537Z,45.4
2022-08-17T18:09:37.301Z,43.6
2022-08-17T18:11:41.225Z,43.2
2022-08-17T18:13:45.151Z,42.3
2022-08-17T18:15:49.074Z,42.7
2022-08-17T18:17:52.967Z,49.1
2022-08-17T18:19:56.895Z,47.6
2022-08-17T18:22:00.812Z,60
2022-08-17T18:24:07.555Z,56.3
2022-08-17T18:30:19.327Z,51.2
2022-08-17T18:32:23.231Z,54.2
2022-08-17T18:34:46.624Z,52.3
2022-08-17T18:36:31.123Z,52.6
2022-08-17T18:38:37.851Z,53.1
2022-08-17T18:40:41.834Z,50.5
2022-08-17T18:44:54.792Z,49.5
2022-08-17T18:46:53.556Z,47.4
2022-08-17T18:48:58.836Z,44.8
2022-08-17T18:51:01.462Z,51.4
2022-08-17T18:53:08.146Z,45.1
2022-08-17T18:55:12.131Z,47.6
2022-08-17T18:57:16.005Z,47.6
2022-08-17T18:58:19.376Z,53
2022-08-17T19:00:23.299Z,46.8
2022-08-17T19:02:45.241Z,53.7
2022-08-17T19:04:33.890Z,56.8
2022-08-17T19:06:37.979Z,51
2022-08-17T19:08:41.914Z,51
2022-08-17T19:10:45.791Z,44.8
2022-08-17T19:12:49.710Z,57.6
2022-08-17T19:14:53.687Z,55.1
2022-08-17T19:16:57.559Z,50.2
2022-08-17T19:19:01.588Z,47.6
2022-08-17T19:21:08.370Z,54.5
2022-08-17T19:27:20.132Z,61.7
2022-08-17T19:29:24.001Z,55.2
2022-08-17T19:31:29.510Z,50.2
2022-08-17T19:35:40.090Z,53
2022-08-17T19:37:45.004Z,48.7
2022-08-17T19:39:48.990Z,49.1
2022-08-17T19:41:52.798Z,51.2
2022-08-17T19:43:56.782Z,50.8
2022-08-17T19:46:00.645Z,57.8
2022-08-17T19:48:04.922Z,46.8
2022-08-17T19:50:11.344Z,49.5
2022-08-17T19:52:15.298Z,58.5
2022-08-17T19:54:19.192Z,46.3
2022-08-17T19:56:48.838Z,61.2
2022-08-17T19:58:52.788Z,56.9
2022-08-17T20:00:56.745Z,59.4
2022-08-17T20:05:07.357Z,50.9
2022-08-17T20:07:11.281Z,52
2022-08-17T20:09:15.475Z,59
2022-08-17T20:11:19.115Z,48.6
2022-08-17T20:13:33.202Z,48.3
2022-08-17T20:15:26.974Z,52.2
2022-08-17T20:17:33.729Z,54.2
2022-08-17T20:19:37.658Z,55.8
2022-08-17T20:21:41.578Z,63.4
2022-08-17T20:25:49.409Z,45.4
2022-08-17T20:27:53.338Z,55
2022-08-17T20:29:57.243Z,56.8
2022-08-17T20:32:04.013Z,48.9
2022-08-17T20:34:07.927Z,61.1
2022-08-17T20:36:11.839Z,48.9
2022-08-17T20:38:15.763Z,45.2
2022-08-17T20:40:19.703Z,67.4
2022-08-17T20:42:23.610Z,52.7
2022-08-17T20:44:27.526Z,44.5
2022-08-17T20:46:34.278Z,45.1
2022-08-17T20:48:39.138Z,45.2
2022-08-17T20:50:42.134Z,49.2
2022-08-17T20:51:45.512Z,49.3
2022-08-17T20:53:49.433Z,49.2
2022-08-17T20:55:53.521Z,44.5
2022-08-17T20:57:57.274Z,50.4
2022-08-17T21:00:04.019Z,47.7
2022-08-17T21:02:17.580Z,48.3
2022-08-17T21:04:11.858Z,41.3
2022-08-17T21:06:17.686Z,36.6
2022-08-17T21:08:19.702Z,49.8
2022-08-17T21:10:23.648Z,46.1
2022-08-17T21:12:27.553Z,55.9
2022-08-17T21:14:34.327Z,57.8
2022-08-17T21:16:38.242Z,47.7
2022-08-17T21:18:42.149Z,44.3
2022-08-17T21:20:46.097Z,37.2
2022-08-17T21:22:50.006Z,44.3
2022-08-17T21:24:53.936Z,53.3
2022-08-17T21:26:57.830Z,45
2022-08-17T21:29:30.049Z,46
2022-08-17T21:31:09.266Z,46.7
2022-08-17T21:33:12.449Z,40.8
2022-08-17T21:35:16.382Z,49
2022-08-17T21:37:20.492Z,45.7
2022-08-17T21:39:24.250Z,55
2022-08-17T21:41:28.147Z,37.9
2022-08-17T21:43:34.921Z,45.9
2022-08-17T21:45:38.857Z,37.4
2022-08-17T21:52:53.993Z,41.7
2022-08-17T21:54:57.915Z,42.6
2022-08-17T21:57:04.699Z,44.3
2022-08-17T21:59:08.623Z,42.6
2022-08-17T22:01:12.663Z,41.2
2022-08-17T22:07:24.306Z,42.9
2022-08-17T22:09:28.258Z,40.4
2022-08-17T22:11:35.016Z,48
2022-08-17T22:13:38.933Z,44
2022-08-17T22:19:50.735Z,35.3
2022-08-17T22:21:54.657Z,49.5
2022-08-17T22:23:58.609Z,45.6
2022-08-17T22:28:09.327Z,37.8
2022-08-17T22:32:17.144Z,40.2
2022-08-17T22:34:21.062Z,39.8
2022-08-17T22:38:28.922Z,33.4
2022-08-17T22:40:35.683Z,38.2
2022-08-17T22:44:43.541Z,31.9
2022-08-17T22:45:46.917Z,38.5
2022-08-17T22:47:51.010Z,35
2022-08-17T22:54:05.487Z,36.6
2022-08-17T22:56:09.410Z,46.3
2022-08-17T22:58:13.328Z,40
2022-08-17T23:00:17.281Z,40.5
2022-08-17T23:02:21.228Z,36.4
2022-08-17T23:04:25.126Z,35.1
2022-08-17T23:06:29.058Z,34.8
2022-08-17T23:08:35.830Z,28.2
2022-08-17T23:10:39.752Z,32.2
2022-08-17T23:12:43.692Z,31.9
2022-08-17T23:14:47.651Z,32.5
2022-08-17T23:16:51.584Z,38.9
2022-08-17T23:18:55.498Z,41.8
2022-08-17T23:20:59.486Z,31.8
2022-08-17T23:23:06.193Z,28.3
2022-08-17T23:25:10.145Z,39.8
2022-08-17T23:27:14.085Z,26.6
2022-08-17T23:29:17.999Z,35
2022-08-17T23:31:23.461Z,34.6
2022-08-17T23:41:44.453Z,30.5
2022-08-17T23:44:02.524Z,25.8
2022-08-17T23:48:10.385Z,26.9
2022-08-17T23:50:17.164Z,25.7
2022-08-17T23:52:21.079Z,27.4
2022-08-17T23:54:25.018Z,24
2022-08-17T23:56:28.965Z,29
2022-08-17T23:58:32.923Z,34.8
